Time;durP1;ratioP1;P1;durP2;ratioP2;P2;SDS_P1;SDS_P2;PMS_P1;PMS_P2;Temp;Humidity;BMP_temperature;BMP_pressure;BME280_temperature;BME280_humidity;BME280_pressure;Samples;Min_cycle;Max_cycle;Signal;HPM_P1;HPM_P2
2023/12/11 00:00:25;;;;;;;23.52;4.15;;;;;;;13.67;62.79;99892.72;4768248;29;115402;-72
2023/12/11 00:02:53;;;;;;;30.08;4.65;;;;;;;13.66;62.70;99888.38;4774466;29;123984;-72
2023/12/11 00:05:20;;;;;;;29.15;4.30;;;;;;;13.66;62.70;99882.22;4764749;29;124588;-74
2023/12/11 00:07:48;;;;;;;28.25;4.93;;;;;;;13.64;62.64;99884.97;4757685;29;112968;-72
2023/12/11 00:10:15;;;;;;;24.15;4.30;;;;;;;13.63;63.00;99877.94;4775063;29;112186;-72
2023/12/11 00:12:42;;;;;;;30.08;4.45;;;;;;;13.60;62.68;99878.19;4763524;29;124636;-72
2023/12/11 00:15:10;;;;;;;27.33;4.68;;;;;;;13.59;62.55;99879.13;4760620;29;124898;-72
2023/12/11 00:17:38;;;;;;;30.40;4.38;;;;;;;13.57;62.52;99873.09;4758334;29;115284;-72
2023/12/11 00:20:06;;;;;;;30.65;4.57;;;;;;;13.55;62.34;99880.31;4771932;29;114656;-72
2023/12/11 00:22:33;;;;;;;28.38;4.07;;;;;;;13.54;62.55;99883.94;4761764;29;122255;-72
2023/12/11 00:25:01;;;;;;;21.88;3.80;;;;;;;13.52;62.49;99880.53;4756728;29;123854;-72
2023/12/11 00:27:28;;;;;;;24.98;3.88;;;;;;;13.50;62.61;99874.47;4759459;29;113534;-72
2023/12/11 00:29:58;;;;;;;31.88;4.53;;;;;;;13.48;62.59;99873.75;4765983;29;115263;-72
2023/12/11 00:32:25;;;;;;;26.17;3.95;;;;;;;13.46;62.45;99881.00;4776993;29;124192;-72
2023/12/11 00:34:53;;;;;;;26.45;4.30;;;;;;;13.43;62.42;99877.59;4760378;29;124648;-72
2023/12/11 00:37:20;;;;;;;31.95;4.53;;;;;;;13.40;62.66;99877.81;4781505;29;115337;-72
2023/12/11 00:39:47;;;;;;;29.48;4.10;;;;;;;13.37;62.60;99870.06;4778751;29;114177;-72
2023/12/11 00:42:14;;;;;;;25.75;4.20;;;;;;;13.33;62.58;99876.53;4768238;29;122641;-72
2023/12/11 00:44:41;;;;;;;26.98;4.35;;;;;;;13.32;62.69;99874.88;4765829;29;123886;-72
2023/12/11 00:47:10;;;;;;;28.02;4.65;;;;;;;13.29;62.55;99874.19;4766306;29;114724;-72
2023/12/11 00:49:37;;;;;;;29.88;4.15;;;;;;;13.29;62.51;99875.03;4765882;29;115429;-72
2023/12/11 00:52:05;;;;;;;29.80;4.30;;;;;;;13.27;62.65;99876.97;4764848;29;124386;-73
2023/12/11 00:54:32;;;;;;;28.42;4.20;;;;;;;13.26;62.65;99880.59;4778377;29;124048;-72
2023/12/11 00:56:59;;;;;;;27.25;4.35;;;;;;;13.24;62.63;99871.84;4735040;29;115209;-72
2023/12/11 00:59:26;;;;;;;26.83;3.80;;;;;;;13.23;62.68;99870.16;4749481;29;114541;-72
2023/12/11 01:01:54;;;;;;;34.10;4.60;;;;;;;13.21;62.70;99872.09;4755125;29;124737;-72
2023/12/11 01:04:21;;;;;;;32.22;4.60;;;;;;;13.19;62.41;99874.00;4747633;29;125670;-72
2023/12/11 01:06:48;;;;;;;26.92;4.65;;;;;;;13.19;62.65;99874.00;4761145;29;114669;-72
2023/12/11 01:09:15;;;;;;;35.47;4.68;;;;;;;13.18;62.77;99872.31;4770694;29;114213;-72
2023/12/11 01:11:43;;;;;;;32.13;4.50;;;;;;;13.18;62.85;99861.66;4733441;29;122634;-72
2023/12/11 01:14:10;;;;;;;33.53;4.43;;;;;;;13.18;62.84;99861.66;4751215;29;122982;-72
2023/12/11 01:16:37;;;;;;;28.15;4.70;;;;;;;13.20;62.85;99862.41;4775153;29;115137;-72
2023/12/11 01:19:04;;;;;;;28.55;4.10;;;;;;;13.19;62.83;99858.06;4762288;29;116632;-72
2023/12/11 01:21:31;;;;;;;31.42;4.35;;;;;;;13.19;62.84;99858.91;4766387;29;123528;-72
2023/12/11 01:23:59;;;;;;;28.50;4.30;;;;;;;13.19;62.84;99852.75;4769677;29;124224;-72
2023/12/11 01:26:26;;;;;;;24.15;4.00;;;;;;;13.20;62.96;99865.06;4764466;29;115535;-72
2023/12/11 01:28:53;;;;;;;28.45;4.75;;;;;;;13.20;62.78;99843.78;4764394;29;115946;-72
2023/12/11 01:31:20;;;;;;;25.77;4.45;;;;;;;13.20;62.85;99844.66;4763493;29;124420;-72
2023/12/11 01:33:47;;;;;;;24.58;4.00;;;;;;;13.21;62.81;99840.19;4763734;29;124946;-72
2023/12/11 01:36:14;;;;;;;38.03;4.95;;;;;;;13.20;62.73;99834.03;4762205;29;114901;-72
2023/12/11 01:38:42;;;;;;;31.05;5.18;;;;;;;13.21;63.01;99830.41;4764713;29;114972;-72
2023/12/11 01:41:09;;;;;;;34.55;4.80;;;;;;;13.23;62.98;99827.63;4758957;29;124327;-72
2023/12/11 01:43:36;;;;;;;27.15;4.32;;;;;;;13.24;62.95;99831.97;4757848;29;125035;-72
2023/12/11 01:46:06;;;;;;;25.90;4.90;;;;;;;13.25;63.01;99831.03;4774101;29;114475;-72
2023/12/11 01:48:33;;;;;;;29.80;4.30;;;;;;;13.27;62.92;99834.41;4780382;29;113878;-72
2023/12/11 01:51:02;;;;;;;24.67;4.10;;;;;;;13.27;62.92;99822.94;4763242;29;124730;-72
2023/12/11 01:53:31;;;;;;;33.38;5.25;;;;;;;13.28;62.98;99820.19;4749348;29;123433;-72
2023/12/11 01:55:58;;;;;;;35.13;4.88;;;;;;;13.31;63.08;99813.81;4747281;29;115726;-72
2023/12/11 01:58:25;;;;;;;22.73;3.78;;;;;;;13.34;63.08;99803.78;4771943;29;114286;-72
2023/12/11 02:00:52;;;;;;;29.33;4.20;;;;;;;13.37;63.08;99808.91;4772834;29;123908;-72
2023/12/11 02:03:21;;;;;;;32.97;4.85;;;;;;;13.40;62.97;99800.69;4773925;29;124564;-72
2023/12/11 02:05:51;;;;;;;33.28;4.13;;;;;;;13.44;62.98;99799.47;4769341;29;114400;-72
2023/12/11 02:08:19;;;;;;;27.63;4.55;;;;;;;13.48;62.51;99796.59;4755510;29;114411;-72
2023/12/11 02:10:46;;;;;;;24.55;4.13;;;;;;;13.51;62.72;99793.72;4767050;29;125057;-72
2023/12/11 02:13:13;;;;;;;26.50;4.45;;;;;;;13.53;62.79;99791.81;4746838;29;123348;-73
2023/12/11 02:15:43;;;;;;;23.70;3.88;;;;;;;13.55;62.52;99784.56;4764394;29;114779;-72
2023/12/11 02:18:12;;;;;;;30.83;4.60;;;;;;;13.56;62.48;99786.22;4752930;29;115619;-72
2023/12/11 02:20:41;;;;;;;23.42;3.92;;;;;;;13.58;62.46;99784.31;4745408;29;123677;-72
2023/12/11 02:23:32;;;;;;;23.20;3.83;;;;;;;13.61;62.46;99784.09;4763657;29;124831;-72
2023/12/11 02:26:17;;;;;;;29.52;4.32;;;;;;;13.63;62.43;99782.16;4763807;29;115024;-72
2023/12/11 02:28:45;;;;;;;26.80;4.33;;;;;;;13.64;62.48;99767.91;4769452;29;114885;-72
2023/12/11 02:31:13;;;;;;;26.98;4.57;;;;;;;13.65;62.50;99758.94;4768663;29;124659;-72
2023/12/11 02:33:40;;;;;;;35.65;4.15;;;;;;;13.66;62.39;99755.34;4769339;29;123961;-72
2023/12/11 02:36:08;;;;;;;26.77;4.35;;;;;;;13.67;62.50;99757.00;4777801;29;114999;-72
2023/12/11 02:38:35;;;;;;;28.90;4.32;;;;;;;13.69;62.40;99755.09;4773390;29;114612;-72
2023/12/11 02:41:03;;;;;;;23.30;3.92;;;;;;;13.69;62.30;99744.44;4772224;29;124147;-72
2023/12/11 02:43:30;;;;;;;30.60;3.88;;;;;;;13.69;62.24;99733.78;4757984;29;126264;-72
2023/12/11 02:45:57;;;;;;;26.02;4.05;;;;;;;13.70;62.16;99738.16;4763656;29;114517;-72
2023/12/11 02:48:24;;;;;;;26.95;4.22;;;;;;;13.70;62.18;99740.81;4758212;29;113850;-72
2023/12/11 02:50:52;;;;;;;27.25;4.00;;;;;;;13.71;62.17;99739.00;4760672;29;124810;-72
2023/12/11 02:53:19;;;;;;;28.30;4.10;;;;;;;13.73;62.07;99734.41;4770290;29;123886;-72
2023/12/11 02:55:46;;;;;;;29.05;4.10;;;;;;;13.74;62.04;99736.97;4781434;29;115046;-72
2023/12/11 02:58:13;;;;;;;28.05;4.13;;;;;;;13.75;62.43;99733.34;4780952;29;113947;-72
2023/12/11 03:00:41;;;;;;;24.45;3.42;;;;;;;13.76;61.83;99729.72;4779227;29;124595;-72
2023/12/11 03:03:09;;;;;;;28.75;4.57;;;;;;;13.78;61.93;99727.78;4776411;29;125014;-72
2023/12/11 03:05:36;;;;;;;24.67;3.67;;;;;;;13.78;62.00;99727.78;4774986;29;115330;-72
2023/12/11 03:08:04;;;;;;;33.42;4.60;;;;;;;13.79;61.92;99718.84;4779306;29;115403;-72
2023/12/11 03:10:32;;;;;;;23.20;3.72;;;;;;;13.80;61.84;99715.19;4768952;29;124290;-72
2023/12/11 03:12:59;;;;;;;19.45;3.45;;;;;;;13.81;62.06;99722.22;4771576;29;125752;-72
2023/12/11 03:15:27;;;;;;;30.90;4.50;;;;;;;13.80;61.75;99704.56;4786994;29;115823;-72
2023/12/11 03:17:54;;;;;;;23.65;4.32;;;;;;;13.81;61.85;99708.94;4789060;29;113873;-72
2023/12/11 03:20:21;;;;;;;22.45;4.22;;;;;;;13.81;61.72;99694.78;4786153;29;121716;-72
2023/12/11 03:22:48;;;;;;;24.88;3.88;;;;;;;13.81;61.78;99698.28;4780015;29;124898;-72
2023/12/11 03:25:15;;;;;;;24.63;3.75;;;;;;;13.81;61.78;99684.13;4774627;29;113847;-72
2023/12/11 03:27:43;;;;;;;18.67;3.60;;;;;;;13.80;61.91;99688.59;4767158;29;112526;-72
2023/12/11 03:30:10;;;;;;;25.05;3.78;;;;;;;13.80;61.59;99693.91;4793115;29;125047;-72
2023/12/11 03:32:37;;;;;;;25.13;3.67;;;;;;;13.78;61.73;99693.19;4778980;29;124607;-72
2023/12/11 03:35:05;;;;;;;25.55;4.22;;;;;;;13.75;61.73;99696.09;4757300;29;113664;-72
2023/12/11 03:37:32;;;;;;;20.00;3.65;;;;;;;13.74;61.77;99699.72;4774010;29;114843;-72
2023/12/11 03:39:59;;;;;;;20.77;3.83;;;;;;;13.73;61.57;99692.72;4759681;29;125070;-72
2023/12/11 03:42:26;;;;;;;24.83;3.22;;;;;;;13.71;61.70;99678.69;4757101;29;125698;-72
2023/12/11 03:44:54;;;;;;;19.95;3.45;;;;;;;13.70;61.74;99682.28;4758177;29;116165;-72
2023/12/11 03:47:21;;;;;;;23.58;4.13;;;;;;;13.70;61.75;99682.28;4763901;29;114109;-72
2023/12/11 03:49:48;;;;;;;29.38;3.92;;;;;;;13.68;61.77;99681.56;4757642;29;123974;-72
2023/12/11 03:52:16;;;;;;;26.08;3.33;;;;;;;13.67;61.79;99684.34;4739060;29;125140;-73
2023/12/11 03:54:43;;;;;;;23.58;4.13;;;;;;;13.66;61.78;99675.50;4777353;29;115245;-72
2023/12/11 03:57:10;;;;;;;26.73;4.38;;;;;;;13.66;61.88;99667.53;4768238;29;114475;-72
2023/12/11 03:59:37;;;;;;;21.77;3.15;;;;;;;13.66;61.68;99675.50;4760710;29;124807;-72
2023/12/11 04:02:05;;;;;;;24.63;3.80;;;;;;;13.65;61.69;99679.13;4775584;29;123733;-72
2023/12/11 04:04:33;;;;;;;21.85;3.38;;;;;;;13.64;61.72;99661.47;4760909;29;114431;-72
2023/12/11 04:07:00;;;;;;;24.23;3.80;;;;;;;13.63;61.54;99665.94;4775646;29;114416;-72
2023/12/11 04:09:28;;;;;;;20.35;3.47;;;;;;;13.62;61.60;99668.75;4757280;29;124964;-72
2023/12/11 04:11:55;;;;;;;20.40;3.60;;;;;;;13.61;61.50;99675.00;4773652;29;123774;-72
2023/12/11 04:14:22;;;;;;;25.15;3.53;;;;;;;13.59;61.41;99674.28;4777676;29;114334;-72
2023/12/11 04:16:49;;;;;;;19.17;3.30;;;;;;;13.57;61.43;99660.25;4752918;29;115571;-72
2023/12/11 04:19:16;;;;;;;15.77;2.85;;;;;;;13.56;61.43;99669.19;4762780;29;123205;-72
2023/12/11 04:21:44;;;;;;;18.02;2.80;;;;;;;13.56;61.40;99669.19;4767078;29;125179;-72
2023/12/11 04:24:11;;;;;;;18.23;3.20;;;;;;;13.55;61.55;99672.81;4766908;29;114494;-73
2023/12/11 04:26:41;;;;;;;14.25;2.90;;;;;;;13.55;61.51;99670.16;4761917;29;114411;-72
2023/12/11 04:29:08;;;;;;;18.55;2.97;;;;;;;13.55;61.58;99667.50;4745866;29;124671;-72
2023/12/11 04:31:35;;;;;;;14.90;2.80;;;;;;;13.55;61.54;99667.50;4762706;29;123959;-72
2023/12/11 04:34:03;;;;;;;18.23;2.88;;;;;;;13.56;61.62;99663.88;4763867;29;115185;-72
2023/12/11 04:36:30;;;;;;;16.60;2.83;;;;;;;13.56;61.64;99661.19;4762520;29;114606;-72
2023/12/11 04:38:57;;;;;;;14.70;2.70;;;;;;;13.55;61.66;99652.38;4749550;29;124248;-72
2023/12/11 04:41:25;;;;;;;18.08;2.70;;;;;;;13.56;61.63;99647.91;4763856;29;124664;-72
2023/12/11 04:43:52;;;;;;;16.58;3.08;;;;;;;13.56;61.66;99639.91;4750873;29;115914;-72
2023/12/11 04:46:19;;;;;;;19.15;2.95;;;;;;;13.55;61.64;99647.06;4760763;29;114979;-72
2023/12/11 04:48:46;;;;;;;16.83;3.20;;;;;;;13.55;61.52;99648.88;4763322;29;124485;-72
2023/12/11 04:51:14;;;;;;;16.00;2.95;;;;;;;13.55;61.70;99646.22;4752096;29;124941;-72
2023/12/11 04:53:41;;;;;;;19.65;3.45;;;;;;;13.54;61.72;99644.50;4766938;29;114552;-73
2023/12/11 04:56:08;;;;;;;21.05;3.25;;;;;;;13.54;61.71;99652.50;4753823;29;114451;-72
2023/12/11 04:58:35;;;;;;;18.73;3.10;;;;;;;13.54;61.81;99644.50;4770848;29;124010;-72
2023/12/11 05:01:03;;;;;;;23.48;3.33;;;;;;;13.53;61.80;99638.34;4770179;29;124853;-72
2023/12/11 05:03:30;;;;;;;21.35;3.35;;;;;;;13.55;61.84;99632.91;4767679;29;115354;-72
2023/12/11 05:05:58;;;;;;;22.85;3.40;;;;;;;13.54;61.76;99639.19;4767847;29;115426;-72
2023/12/11 05:08:25;;;;;;;22.15;3.75;;;;;;;13.53;62.00;99649.00;4765297;29;124038;-72
2023/12/11 05:10:56;;;;;;;25.20;3.55;;;;;;;13.51;61.99;99628.81;4764986;29;123895;-72
2023/12/11 05:13:23;;;;;;;20.30;3.17;;;;;;;13.51;62.17;99634.13;4771312;29;114073;-72
2023/12/11 05:15:51;;;;;;;21.70;3.35;;;;;;;13.51;62.33;99644.78;4760749;29;114877;-72
2023/12/11 05:18:18;;;;;;;19.83;3.78;;;;;;;13.51;62.25;99660.72;4765324;29;124187;-72
2023/12/11 05:20:45;;;;;;;22.42;3.42;;;;;;;13.49;62.20;99662.66;4764668;29;124649;-72
2023/12/11 05:23:13;;;;;;;26.20;3.10;;;;;;;13.48;62.39;99666.28;4749251;29;114885;-72
2023/12/11 05:25:40;;;;;;;17.55;3.22;;;;;;;13.47;62.40;99659.25;4767802;29;113864;-72
2023/12/11 05:28:07;;;;;;;24.77;3.20;;;;;;;13.45;62.36;99646.09;4765969;29;125044;-72
2023/12/11 05:30:35;;;;;;;21.08;3.17;;;;;;;13.46;62.53;99654.91;4764525;29;125672;-72
2023/12/11 05:33:02;;;;;;;21.15;3.03;;;;;;;13.44;62.51;99650.53;4749024;29;113832;-72
2023/12/11 05:35:30;;;;;;;19.52;3.55;;;;;;;13.44;62.57;99644.38;4766099;29;115875;-72
2023/12/11 05:37:59;;;;;;;21.02;4.00;;;;;;;13.43;62.64;99648.84;4764722;29;123753;-72
2023/12/11 05:40:27;;;;;;;22.55;3.25;;;;;;;13.44;62.68;99644.38;4764659;29;124656;-73
2023/12/11 05:42:54;;;;;;;20.00;3.40;;;;;;;13.43;62.72;99653.34;4766617;29;112466;-72
2023/12/11 05:45:21;;;;;;;15.85;3.20;;;;;;;13.42;62.83;99641.00;4769349;29;114326;-72
2023/12/11 05:47:48;;;;;;;16.50;2.83;;;;;;;13.43;62.81;99648.84;4767321;29;123861;-72
2023/12/11 05:50:16;;;;;;;17.50;3.05;;;;;;;13.44;62.91;99655.84;4740231;29;124694;-72
2023/12/11 05:52:44;;;;;;;19.65;3.47;;;;;;;13.43;62.82;99654.19;4753143;29;114422;-72
2023/12/11 05:55:11;;;;;;;21.92;3.53;;;;;;;13.44;62.99;99645.22;4765526;29;113982;-72
2023/12/11 05:57:39;;;;;;;25.45;3.90;;;;;;;13.45;62.89;99635.44;4751338;29;125209;-72
2023/12/11 06:00:07;;;;;;;21.48;3.38;;;;;;;13.44;63.07;99645.22;4755761;29;124871;-72
2023/12/11 06:02:34;;;;;;;21.92;3.25;;;;;;;13.44;63.15;99639.91;4769154;29;115062;-72
2023/12/11 06:05:01;;;;;;;23.40;3.08;;;;;;;13.44;63.18;99610.63;4764730;29;114278;-72
2023/12/11 06:07:29;;;;;;;20.00;3.30;;;;;;;13.44;63.10;99613.28;4771895;29;124798;-72
2023/12/11 06:09:56;;;;;;;24.85;3.58;;;;;;;13.44;63.13;99617.78;4752752;29;125651;-72
2023/12/11 06:12:23;;;;;;;22.67;3.20;;;;;;;13.43;63.14;99616.09;4747395;29;114318;-72
2023/12/11 06:14:50;;;;;;;22.30;3.58;;;;;;;13.42;63.10;99620.56;4763787;29;114333;-72
2023/12/11 06:17:18;;;;;;;19.50;3.58;;;;;;;13.41;63.16;99618.88;4763877;29;123984;-72
2023/12/11 06:19:45;;;;;;;18.20;3.13;;;;;;;13.39;63.18;99618.16;4764980;29;124243;-72
2023/12/11 06:22:12;;;;;;;23.52;3.40;;;;;;;13.40;63.11;99633.13;4754519;29;116240;-73
2023/12/11 06:24:40;;;;;;;15.75;2.90;;;;;;;13.39;63.19;99631.44;4752372;29;115951;-72
2023/12/11 06:27:08;;;;;;;20.15;3.50;;;;;;;13.40;63.15;99627.81;4750746;29;124363;-72
2023/12/11 06:29:36;;;;;;;19.85;2.88;;;;;;;13.40;63.10;99627.81;4767729;29;124424;-72
2023/12/11 06:32:04;;;;;;;11.98;1.75;;;;;;;13.42;63.32;99631.19;4734520;29;113573;-72
2023/12/11 06:34:31;;;;;;;19.58;3.70;;;;;;;13.42;63.23;99625.88;4765517;29;113805;-72
2023/12/11 06:36:59;;;;;;;21.20;3.38;;;;;;;13.44;63.06;99629.25;4744585;29;125251;-72
2023/12/11 06:39:26;;;;;;;21.17;3.60;;;;;;;13.44;63.03;99623.94;4767471;29;124437;-72
2023/12/11 06:41:54;;;;;;;21.15;2.85;;;;;;;13.44;63.00;99607.97;4763191;29;115613;-72
2023/12/11 06:44:24;;;;;;;15.88;2.83;;;;;;;13.43;63.11;99627.59;4766911;29;113815;-72
2023/12/11 06:46:52;;;;;;;20.48;3.45;;;;;;;13.42;63.13;99636.50;4760673;29;124263;-72
2023/12/11 06:49:20;;;;;;;19.70;3.45;;;;;;;13.41;63.13;99618.88;4751074;29;125255;-72
2023/12/11 06:51:49;;;;;;;17.00;3.17;;;;;;;13.40;63.26;99627.81;4770987;29;114691;-72
2023/12/11 06:54:16;;;;;;;19.13;3.38;;;;;;;13.38;63.31;99627.06;4753167;29;112734;-72
2023/12/11 06:56:43;;;;;;;20.35;3.33;;;;;;;13.38;63.30;99629.72;4763003;29;124172;-72
2023/12/11 06:59:10;;;;;;;15.63;3.22;;;;;;;13.36;63.42;99631.66;4766520;29;124711;-72
2023/12/11 07:01:38;;;;;;;18.73;3.25;;;;;;;13.33;63.40;99647.84;4763829;29;114145;-72
2023/12/11 07:04:05;;;;;;;22.50;3.60;;;;;;;13.31;63.29;99639.13;4773918;29;113841;-72
2023/12/11 07:06:33;;;;;;;15.85;3.28;;;;;;;13.30;63.50;99642.78;4749269;29;125456;-72
2023/12/11 07:09:00;;;;;;;17.27;3.10;;;;;;;13.28;63.43;99649.13;4749137;29;125834;-71
2023/12/11 07:11:28;;;;;;;23.02;3.47;;;;;;;13.27;63.53;99653.59;4761079;29;115178;-71
2023/12/11 07:13:55;;;;;;;17.85;3.03;;;;;;;13.26;63.56;99651.91;4751894;29;116677;-72
2023/12/11 07:16:23;;;;;;;19.58;3.00;;;;;;;13.24;63.58;99651.16;4753337;29;124520;-72
2023/12/11 07:18:52;;;;;;;17.95;3.17;;;;;;;13.22;63.79;99667.25;4764727;29;125506;-72
2023/12/11 07:21:20;;;;;;;18.30;3.90;;;;;;;13.21;63.70;99662.88;4765948;29;113768;-72
2023/12/11 07:23:48;;;;;;;19.90;3.47;;;;;;;13.21;63.87;99680.66;4769207;29;113916;-71
2023/12/11 07:26:16;;;;;;;19.65;3.13;;;;;;;13.18;63.92;99671.09;4747111;29;123511;-72
2023/12/11 07:28:43;;;;;;;13.93;2.83;;;;;;;13.17;63.84;99680.03;4752298;29;124951;-72
2023/12/11 07:31:10;;;;;;;18.10;2.97;;;;;;;13.15;63.83;99675.81;4770246;29;115390;-72
2023/12/11 07:33:38;;;;;;;15.63;3.05;;;;;;;13.13;63.90;99673.25;4755491;29;114442;-72
2023/12/11 07:36:05;;;;;;;10.02;2.60;;;;;;;13.13;63.81;99680.38;4771731;29;124203;-72
2023/12/11 07:38:33;;;;;;;17.98;2.50;;;;;;;13.13;63.80;99677.69;4750739;29;124320;-72
2023/12/11 07:41:00;;;;;;;15.65;2.72;;;;;;;13.14;63.72;99674.09;4754372;29;113450;-72
2023/12/11 07:43:32;;;;;;;17.98;2.50;;;;;;;13.15;63.74;99683.78;4754419;29;114704;-72
2023/12/11 07:46:00;;;;;;;15.93;2.33;;;;;;;13.15;63.81;99681.13;4752730;29;123913;-72
2023/12/11 07:48:28;;;;;;;13.43;2.22;;;;;;;13.15;63.89;99687.28;4766629;29;123861;-72
2023/12/11 07:50:56;;;;;;;14.10;1.95;;;;;;;13.17;63.91;99689.84;4777620;29;114580;-73
2023/12/11 07:53:23;;;;;;;14.90;1.73;;;;;;;13.16;63.80;99693.44;4770555;29;113849;-72
2023/12/11 07:55:50;;;;;;;7.78;1.55;;;;;;;13.16;63.68;99688.13;4753847;29;124610;-73
2023/12/11 07:58:18;;;;;;;14.10;1.70;;;;;;;13.17;63.73;99703.13;4765101;29;124063;-72
2023/12/11 08:00:45;;;;;;;8.15;2.00;;;;;;;13.17;63.65;99700.47;4774675;29;116680;-73
2023/12/11 08:03:12;;;;;;;10.30;1.60;;;;;;;13.17;63.68;99713.75;4765742;29;114346;-72
2023/12/11 08:05:40;;;;;;;13.35;2.08;;;;;;;13.17;63.74;99711.09;4764789;29;125331;-72
2023/12/11 08:08:07;;;;;;;10.50;1.70;;;;;;;13.17;63.76;99700.47;4749896;29;123871;-72
2023/12/11 08:10:34;;;;;;;6.63;1.23;;;;;;;13.17;63.60;99711.09;4783493;29;114157;-72
2023/12/11 08:13:02;;;;;;;11.52;1.50;;;;;;;13.17;63.24;99708.44;4776425;29;116448;-72
2023/12/11 08:15:29;;;;;;;9.93;1.45;;;;;;;13.16;63.67;99720.03;4788955;29;123986;-71
2023/12/11 08:17:56;;;;;;;13.82;1.75;;;;;;;13.16;63.83;99735.97;4790221;29;125867;-72
2023/12/11 08:20:24;;;;;;;10.15;1.27;;;;;;;13.16;63.53;99731.50;4778241;29;115106;-72
2023/12/11 08:22:51;;;;;;;9.10;1.48;;;;;;;13.16;63.53;99735.97;4787289;29;114615;-72
2023/12/11 08:25:19;;;;;;;9.27;1.52;;;;;;;13.16;63.70;99751.94;4790218;29;123498;-72
2023/12/11 08:27:46;;;;;;;8.27;1.50;;;;;;;13.16;63.67;99749.28;4789442;29;123006;-71
2023/12/11 08:30:13;;;;;;;8.35;1.80;;;;;;;13.16;63.60;99754.59;4780554;29;115171;-71
2023/12/11 08:32:41;;;;;;;11.18;1.40;;;;;;;13.15;63.55;99771.50;4775156;29;115212;-72
2023/12/11 08:35:08;;;;;;;8.38;1.35;;;;;;;13.13;63.73;99784.03;4749119;29;123591;-72
2023/12/11 08:37:36;;;;;;;12.73;1.70;;;;;;;13.13;63.70;99808.84;4772218;29;124126;-72
2023/12/11 08:40:05;;;;;;;10.40;1.98;;;;;;;13.14;63.68;99807.03;4767287;29;114308;-72
2023/12/11 08:42:34;;;;;;;12.75;1.88;;;;;;;13.12;63.67;99807.13;4769320;29;113794;-72
2023/12/11 08:45:08;;;;;;;14.15;1.90;;;;;;;13.12;63.62;99803.63;4754080;29;125762;-72
2023/12/11 08:47:36;;;;;;;6.43;1.38;;;;;;;13.10;63.66;99801.06;4748350;29;124057;-72
2023/12/11 08:50:09;;;;;;;7.47;1.42;;;;;;;13.10;63.76;99810.88;4770151;29;115673;-72
2023/12/11 08:52:38;;;;;;;5.30;1.30;;;;;;;13.10;63.76;99810.88;4752498;29;116302;-72
2023/12/11 08:55:05;;;;;;;7.32;1.40;;;;;;;13.10;63.75;99821.50;4766359;29;123970;-72
2023/12/11 08:57:33;;;;;;;7.05;1.33;;;;;;;13.11;63.72;99812.56;4764258;29;124561;-73
2023/12/11 09:00:03;;;;;;;6.35;1.25;;;;;;;13.11;63.66;99817.88;4768903;29;114731;-73
2023/12/11 09:02:31;;;;;;;7.95;1.00;;;;;;;13.12;63.49;99820.41;4760621;29;114260;-73
2023/12/11 09:04:58;;;;;;;11.55;1.50;;;;;;;13.15;63.89;99830.00;4747891;29;124041;-72
2023/12/11 09:07:25;;;;;;;7.40;1.17;;;;;;;13.15;63.66;99830.84;4765270;29;124228;-73
2023/12/11 09:09:52;;;;;;;7.72;1.20;;;;;;;13.19;63.71;99842.13;4759091;29;115325;-72
2023/12/11 09:12:20;;;;;;;4.60;1.20;;;;;;;13.21;63.55;99842.84;4775235;29;113974;-73
2023/12/11 09:14:59;;;;;;;4.03;0.93;;;;;;;13.24;63.68;99839.94;4758054;29;124445;-73
2023/12/11 09:17:27;;;;;;;7.30;1.30;;;;;;;13.27;63.62;99839.75;4763412;29;123587;-73
2023/12/11 09:19:56;;;;;;;7.07;1.20;;;;;;;13.30;63.56;99855.50;4770714;29;115068;-73
2023/12/11 09:22:24;;;;;;;4.93;1.10;;;;;;;13.33;63.47;99871.22;4773129;29;114116;-72
2023/12/11 09:24:51;;;;;;;11.02;1.25;;;;;;;13.38;63.47;99890.38;4771472;29;124055;-72
2023/12/11 09:27:19;;;;;;;4.78;1.02;;;;;;;13.38;63.52;99874.41;4766738;29;124218;-73
2023/12/11 09:29:48;;;;;;;5.53;1.00;;;;;;;13.42;63.47;99886.53;4766114;29;115111;-73
2023/12/11 09:32:17;;;;;;;6.05;1.27;;;;;;;13.44;63.47;99889.91;4757584;29;112802;-72
2023/12/11 09:34:45;;;;;;;6.40;1.00;;;;;;;13.48;63.31;99903.00;4763742;29;125312;-73
2023/12/11 09:37:13;;;;;;;5.57;1.05;;;;;;;13.50;63.19;99914.38;4764559;29;123896;-73
2023/12/11 09:39:40;;;;;;;4.85;1.00;;;;;;;13.50;63.17;99930.34;4764292;29;115408;-73
2023/12/11 09:42:08;;;;;;;3.70;1.20;;;;;;;13.50;62.98;99919.72;4764137;29;116014;-73
2023/12/11 09:44:36;;;;;;;6.30;1.25;;;;;;;13.50;63.08;99930.34;4769035;29;124317;-73
2023/12/11 09:47:13;;;;;;;3.60;1.00;;;;;;;13.50;62.84;99935.66;4756476;29;123922;-73
2023/12/11 09:49:40;;;;;;;4.65;0.93;;;;;;;13.50;62.96;99956.94;4763082;29;114066;-73
2023/12/11 09:52:08;;;;;;;6.72;1.17;;;;;;;13.47;62.96;99962.47;4749434;29;115090;-73
2023/12/11 09:54:35;;;;;;;5.78;1.10;;;;;;;13.44;62.86;99960.91;4773635;29;123344;-73
2023/12/11 09:57:03;;;;;;;4.57;1.48;;;;;;;13.39;62.86;99966.56;4761864;29;124596;-72
2023/12/11 09:59:30;;;;;;;8.98;1.30;;;;;;;13.37;62.83;99979.13;4763112;29;114851;-72
2023/12/11 10:01:58;;;;;;;5.93;1.30;;;;;;;13.32;62.87;99973.25;4745820;29;114958;-72
2023/12/11 10:04:25;;;;;;;4.45;1.10;;;;;;;13.28;63.00;99990.38;4771076;29;124703;-72
2023/12/11 10:06:52;;;;;;;5.40;0.93;;;;;;;13.26;62.94;99997.59;4773562;29;124331;-72
2023/12/11 10:09:30;;;;;;;6.55;1.27;;;;;;;13.21;63.01;100003.22;4761757;29;115080;-72
2023/12/11 10:12:04;;;;;;;7.15;1.27;;;;;;;13.19;62.94;100006.97;4771293;29;114706;-72
2023/12/11 10:14:31;;;;;;;5.63;1.15;;;;;;;13.17;63.01;100003.56;4772559;29;124009;-72
2023/12/11 10:17:14;;;;;;;5.63;1.23;;;;;;;13.14;63.15;100015.25;4780490;29;123921;-72
2023/12/11 10:19:42;;;;;;;5.13;0.90;;;;;;;13.15;63.13;100016.13;4770102;29;114079;-72
2023/12/11 10:22:25;;;;;;;5.70;1.33;;;;;;;13.15;63.22;100016.94;4763406;29;114216;-72
2023/12/11 10:24:53;;;;;;;4.25;1.23;;;;;;;13.16;63.26;100028.44;4778802;29;124834;-72
2023/12/11 10:27:24;;;;;;;3.65;0.90;;;;;;;13.15;63.41;100022.28;4774852;29;123937;-73
2023/12/11 10:30:08;;;;;;;3.33;0.85;;;;;;;13.16;63.33;100028.44;4766768;29;114956;-72
2023/12/11 10:32:35;;;;;;;3.95;1.00;;;;;;;13.17;63.32;100040.78;4748041;29;115633;-72
2023/12/11 10:35:05;;;;;;;3.75;1.08;;;;;;;13.18;63.50;100037.16;4746217;29;125047;-72
2023/12/11 10:37:35;;;;;;;6.78;1.55;;;;;;;13.19;63.52;100038.88;4758199;29;125879;-72
2023/12/11 10:40:03;;;;;;;5.38;1.20;;;;;;;13.22;63.42;100043.94;4780652;29;114496;-72
2023/12/11 10:42:31;;;;;;;2.83;1.10;;;;;;;13.23;63.42;100051.00;4758621;29;115777;-73
2023/12/11 10:44:58;;;;;;;3.00;1.30;;;;;;;13.23;63.50;100046.50;4759665;29;124778;-72
2023/12/11 10:47:26;;;;;;;9.52;1.20;;;;;;;13.26;63.17;100050.78;4773668;29;124064;-72
2023/12/11 10:49:54;;;;;;;5.03;1.02;;;;;;;13.28;63.44;100059.50;4757870;29;112365;-72
2023/12/11 10:52:21;;;;;;;6.78;1.25;;;;;;;13.29;63.32;100055.88;4768630;29;113899;-72
2023/12/11 10:54:49;;;;;;;3.28;1.13;;;;;;;13.28;63.47;100062.16;4739386;29;124729;-72
2023/12/11 10:57:16;;;;;;;1.75;0.98;;;;;;;13.30;63.34;100065.59;4743084;29;125399;-72
2023/12/11 10:59:44;;;;;;;3.28;1.00;;;;;;;13.31;63.29;100067.28;4759942;29;114297;-73
2023/12/11 11:02:18;;;;;;;2.97;1.20;;;;;;;13.31;63.37;100080.59;4762306;29;114089;-72
2023/12/11 11:04:46;;;;;;;6.45;1.38;;;;;;;13.32;63.31;100082.31;4772631;29;125414;-72
2023/12/11 11:07:19;;;;;;;8.07;1.55;;;;;;;13.31;63.32;100096.53;4757050;29;123544;-74
2023/12/11 11:09:59;;;;;;;4.95;1.02;;;;;;;13.32;63.31;100103.56;4775123;29;112955;-73
2023/12/11 11:12:38;;;;;;;7.93;1.38;;;;;;;13.36;63.22;100099.75;4767846;29;114020;-72
2023/12/11 11:15:08;;;;;;;8.13;1.38;;;;;;;13.36;62.98;100099.75;4748290;29;125148;-72
2023/12/11 11:18:05;;;;;;;3.78;1.23;;;;;;;13.37;63.11;100106.78;4755201;29;123642;-73
2023/12/11 11:20:34;;;;;;;3.90;1.30;;;;;;;13.38;63.12;100113.78;4752181;29;114470;-73
2023/12/11 11:23:13;;;;;;;4.15;1.10;;;;;;;13.39;63.01;100110.19;4762931;29;116384;-72